Time;durP1;ratioP1;P1;durP2;ratioP2;P2;SDS_P1;SDS_P2;PMS_P1;PMS_P2;Temp;Humidity;BMP_temperature;BMP_pressure;BME280_temperature;BME280_humidity;BME280_pressure;Samples;Min_cycle;Max_cycle;Signal;HPM_P1;HPM_P2
2024/01/31 00:00:20;;;;;;;14.93;12.00;;;9.10;99.90;;;;;;5010537;28;20186;-68
2024/01/31 00:02:46;;;;;;;13.53;9.80;;;9.10;99.90;;;;;;5013056;28;20186;-68
2024/01/31 00:05:14;;;;;;;12.80;9.87;;;9.10;99.90;;;;;;5012697;28;20530;-68
2024/01/31 00:07:41;;;;;;;13.10;11.80;;;9.20;99.90;;;;;;5004420;28;20187;-68
2024/01/31 00:10:08;;;;;;;16.73;11.40;;;9.30;99.90;;;;;;5004915;28;20423;-68
2024/01/31 00:12:33;;;;;;;16.17;10.07;;;9.40;99.90;;;;;;5013060;28;20450;-68
2024/01/31 00:14:59;;;;;;;10.50;9.50;;;9.40;99.90;;;;;;5005005;28;20439;-68
2024/01/31 00:17:24;;;;;;;16.60;11.17;;;9.50;99.90;;;;;;5012141;28;20202;-68
2024/01/31 00:19:50;;;;;;;16.97;10.47;;;9.40;99.90;;;;;;5011523;28;20625;-68
2024/01/31 00:22:15;;;;;;;11.00;10.00;;;9.40;99.90;;;;;;4998009;28;20258;-68
2024/01/31 00:24:41;;;;;;;13.03;10.50;;;9.30;99.90;;;;;;5014427;28;20194;-68
2024/01/31 00:27:06;;;;;;;12.10;9.80;;;9.30;99.90;;;;;;5006089;28;20212;-68
2024/01/31 00:29:32;;;;;;;10.73;9.30;;;9.40;99.90;;;;;;5000425;28;20194;-68
2024/01/31 00:31:57;;;;;;;12.73;10.07;;;9.50;99.90;;;;;;5010387;28;20203;-68
2024/01/31 00:34:23;;;;;;;13.70;9.43;;;9.40;99.90;;;;;;5009557;28;20262;-68
2024/01/31 00:36:48;;;;;;;13.47;10.90;;;9.40;99.90;;;;;;5003071;28;20203;-68
2024/01/31 00:39:14;;;;;;;11.00;9.90;;;9.40;99.90;;;;;;5001812;28;20179;-68
2024/01/31 00:41:39;;;;;;;10.30;9.30;;;9.50;99.90;;;;;;5012817;28;20175;-68
2024/01/31 00:44:05;;;;;;;10.90;9.80;;;9.50;99.90;;;;;;5011838;28;20179;-68
2024/01/31 00:46:30;;;;;;;13.07;9.10;;;9.50;99.90;;;;;;5000895;28;20207;-68
2024/01/31 00:48:56;;;;;;;10.73;9.63;;;9.40;99.90;;;;;;5008504;28;20187;-68
2024/01/31 00:51:22;;;;;;;12.30;9.77;;;9.20;99.90;;;;;;5012204;28;20229;-68
2024/01/31 00:53:47;;;;;;;11.50;9.87;;;9.20;99.90;;;;;;5014747;28;20187;-68
2024/01/31 00:56:13;;;;;;;11.33;9.17;;;9.20;99.90;;;;;;5003845;28;20281;-68
2024/01/31 00:58:39;;;;;;;12.63;9.57;;;9.20;99.90;;;;;;5009269;28;20265;-68
2024/01/31 01:01:04;;;;;;;12.33;8.97;;;9.10;99.90;;;;;;5012300;28;20205;-68
2024/01/31 01:03:30;;;;;;;10.77;8.97;;;9.20;99.90;;;;;;5011571;28;20309;-68
2024/01/31 01:05:55;;;;;;;10.73;9.67;;;9.30;99.90;;;;;;5012520;28;20185;-68
2024/01/31 01:08:21;;;;;;;12.90;10.00;;;9.40;99.90;;;;;;5009139;28;20190;-68
2024/01/31 01:10:46;;;;;;;11.00;9.90;;;9.40;99.90;;;;;;5009423;28;20207;-68
2024/01/31 01:13:12;;;;;;;10.20;9.20;;;9.40;99.90;;;;;;5010559;28;20245;-68
2024/01/31 01:15:37;;;;;;;9.73;8.80;;;9.50;99.90;;;;;;5005686;28;20170;-68
2024/01/31 01:18:03;;;;;;;12.43;9.23;;;9.40;99.90;;;;;;5008657;28;20208;-68
2024/01/31 01:20:28;;;;;;;11.00;9.83;;;9.30;99.90;;;;;;5022787;28;20179;-68
2024/01/31 01:22:55;;;;;;;9.70;8.80;;;9.40;99.90;;;;;;4995584;28;20578;-68
2024/01/31 01:25:21;;;;;;;9.93;8.77;;;9.30;99.90;;;;;;5009432;28;20185;-68
2024/01/31 01:27:50;;;;;;;9.70;8.70;;;9.30;99.90;;;;;;5027586;23;20581;-70
2024/01/31 01:30:20;;;;;;;10.23;8.93;;;9.30;99.90;;;;;;5002337;28;20191;-70
2024/01/31 01:32:45;;;;;;;9.37;8.47;;;9.30;99.90;;;;;;5010515;28;20440;-70
2024/01/31 01:35:11;;;;;;;11.53;8.70;;;9.40;99.90;;;;;;5011721;28;20791;-70
2024/01/31 01:37:36;;;;;;;9.40;8.00;;;9.40;99.90;;;;;;5004070;28;20203;-70
2024/01/31 01:40:02;;;;;;;10.60;9.50;;;9.40;99.90;;;;;;4988254;28;20532;-70
2024/01/31 01:42:28;;;;;;;15.50;10.33;;;9.40;99.90;;;;;;4985963;28;20978;-70
2024/01/31 01:44:54;;;;;;;7.73;7.03;;;9.40;99.90;;;;;;4989738;28;20522;-70
2024/01/31 01:47:19;;;;;;;10.17;8.17;;;9.40;99.90;;;;;;4988786;28;20278;-70
2024/01/31 01:49:46;;;;;;;9.70;8.80;;;9.50;99.90;;;;;;4989138;28;20238;-70
2024/01/31 01:52:13;;;;;;;9.30;8.20;;;9.40;99.90;;;;;;4989898;28;20211;-70
2024/01/31 01:54:39;;;;;;;10.47;9.40;;;9.40;99.90;;;;;;4992175;28;20434;-70
2024/01/31 01:57:06;;;;;;;10.83;9.73;;;9.40;99.90;;;;;;4993313;28;20496;-70
2024/01/31 01:59:33;;;;;;;15.40;9.67;;;9.40;99.90;;;;;;4996587;28;20175;-70
2024/01/31 02:01:58;;;;;;;10.90;9.30;;;9.30;99.90;;;;;;5000763;28;20470;-70
2024/01/31 02:04:24;;;;;;;9.33;8.43;;;9.20;99.90;;;;;;5000803;28;20446;-70
2024/01/31 02:06:51;;;;;;;10.10;8.10;;;9.30;99.90;;;;;;4990828;28;20203;-70
2024/01/31 02:09:17;;;;;;;10.63;8.40;;;9.30;99.90;;;;;;4992605;28;20175;-70
2024/01/31 02:11:43;;;;;;;9.63;8.67;;;9.30;99.90;;;;;;4996288;28;20830;-70
2024/01/31 02:14:09;;;;;;;9.30;8.40;;;9.30;99.90;;;;;;4993021;28;20935;-70
2024/01/31 02:16:35;;;;;;;11.00;8.80;;;9.30;99.90;;;;;;4992539;28;20513;-70
2024/01/31 02:19:00;;;;;;;10.10;8.60;;;9.30;99.90;;;;;;4996142;28;20507;-70
2024/01/31 02:21:28;;;;;;;9.17;7.77;;;9.20;99.90;;;;;;4991827;28;20672;-70
2024/01/31 02:23:53;;;;;;;11.37;8.67;;;9.10;99.90;;;;;;5000395;28;20207;-70
2024/01/31 02:26:20;;;;;;;10.03;7.00;;;9.20;99.90;;;;;;4996068;28;20478;-70
2024/01/31 02:28:45;;;;;;;9.67;8.80;;;9.30;99.90;;;;;;4995648;28;20649;-70
2024/01/31 02:31:11;;;;;;;11.30;7.40;;;9.30;99.90;;;;;;4984687;28;20466;-70
2024/01/31 02:33:36;;;;;;;8.90;8.00;;;9.30;99.90;;;;;;4990682;28;20258;-70
2024/01/31 02:36:02;;;;;;;9.40;8.50;;;9.30;99.90;;;;;;5010016;28;20180;-70
2024/01/31 02:38:27;;;;;;;8.57;7.77;;;9.30;99.90;;;;;;5000278;28;20688;-70
2024/01/31 02:40:53;;;;;;;8.93;8.03;;;9.30;99.90;;;;;;5002011;28;20253;-70
2024/01/31 02:43:18;;;;;;;10.50;8.67;;;9.30;99.90;;;;;;4986481;28;20184;-70
2024/01/31 02:45:44;;;;;;;9.40;8.40;;;9.30;99.90;;;;;;4994985;28;20186;-70
2024/01/31 02:48:10;;;;;;;8.93;8.10;;;9.40;99.90;;;;;;4987748;28;20210;-70
2024/01/31 02:50:35;;;;;;;8.23;7.47;;;9.40;99.90;;;;;;5001140;28;20652;-70
2024/01/31 02:53:01;;;;;;;7.20;6.50;;;9.40;99.90;;;;;;4998007;28;20189;-70
2024/01/31 02:55:27;;;;;;;8.73;7.40;;;9.40;99.90;;;;;;4991971;28;20180;-70
2024/01/31 02:57:52;;;;;;;8.33;7.47;;;9.30;99.90;;;;;;4991035;28;20446;-70
2024/01/31 03:00:18;;;;;;;11.13;7.90;;;9.30;99.90;;;;;;4994293;28;20184;-70
2024/01/31 03:02:43;;;;;;;10.40;8.00;;;9.10;99.90;;;;;;4991551;28;20184;-70
2024/01/31 03:05:12;;;;;;;11.20;8.47;;;9.00;99.90;;;;;;4988887;28;20175;-70
2024/01/31 03:07:38;;;;;;;9.30;8.33;;;9.00;99.90;;;;;;4985618;28;20564;-70
2024/01/31 03:10:05;;;;;;;8.27;7.47;;;8.80;99.90;;;;;;5006077;28;20438;-70
2024/01/31 03:12:30;;;;;;;8.80;8.00;;;8.80;99.90;;;;;;4997549;28;20465;-70
2024/01/31 03:14:56;;;;;;;9.90;7.30;;;8.70;99.90;;;;;;4993374;28;20517;-70
2024/01/31 03:17:21;;;;;;;9.50;8.47;;;8.70;99.90;;;;;;4993325;28;20696;-70
2024/01/31 03:19:47;;;;;;;8.67;7.43;;;8.70;99.90;;;;;;4996327;28;20183;-70
2024/01/31 03:22:12;;;;;;;9.60;7.93;;;8.70;99.90;;;;;;5002681;28;20240;-71
2024/01/31 03:24:38;;;;;;;7.93;7.23;;;8.80;99.90;;;;;;5002769;28;20189;-70
2024/01/31 03:27:04;;;;;;;9.00;7.53;;;8.80;99.90;;;;;;4990012;28;20217;-71
2024/01/31 03:29:30;;;;;;;9.17;8.30;;;8.80;99.90;;;;;;4993665;28;20284;-70
2024/01/31 03:31:56;;;;;;;9.00;8.10;;;8.80;99.90;;;;;;4998874;28;20494;-71
2024/01/31 03:34:22;;;;;;;12.33;9.30;;;8.80;99.90;;;;;;4993579;28;20184;-70
2024/01/31 03:36:47;;;;;;;9.07;8.07;;;8.90;99.90;;;;;;4996131;28;20533;-70
2024/01/31 03:39:13;;;;;;;12.10;11.10;;;8.90;99.90;;;;;;4986097;28;20180;-71
2024/01/31 03:41:44;;;;;;;8.00;7.17;;;8.90;99.90;;;;;;5007997;28;20703;-70
2024/01/31 03:44:10;;;;;;;9.50;8.10;;;9.00;99.90;;;;;;4986710;28;20262;-70
2024/01/31 03:46:36;;;;;;;9.33;7.50;;;9.10;99.90;;;;;;4999250;28;20557;-71
2024/01/31 03:49:01;;;;;;;9.30;8.40;;;9.20;99.90;;;;;;5000281;28;20183;-70
2024/01/31 03:51:27;;;;;;;9.20;7.97;;;9.20;99.90;;;;;;4990199;28;20245;-71
2024/01/31 03:53:52;;;;;;;9.63;7.80;;;9.20;99.90;;;;;;5001072;28;20648;-70
2024/01/31 03:56:18;;;;;;;9.03;8.13;;;9.20;99.90;;;;;;4992614;28;20207;-70
2024/01/31 03:58:44;;;;;;;9.37;7.57;;;9.20;99.90;;;;;;4993765;28;20219;-70
2024/01/31 04:01:15;;;;;;;14.47;8.70;;;9.20;99.90;;;;;;4997928;28;20225;-70
2024/01/31 04:03:43;;;;;;;9.03;8.13;;;9.20;99.90;;;;;;4992121;28;20259;-70
2024/01/31 04:06:09;;;;;;;7.57;6.87;;;9.10;99.90;;;;;;4993607;28;20497;-70
2024/01/31 04:08:34;;;;;;;8.40;7.60;;;9.10;99.90;;;;;;4990542;28;20960;-70
2024/01/31 04:11:00;;;;;;;8.03;7.23;;;9.00;99.90;;;;;;4996180;28;20200;-70
2024/01/31 04:13:25;;;;;;;8.73;7.93;;;9.10;99.90;;;;;;4995269;28;20179;-70
2024/01/31 04:15:51;;;;;;;10.83;7.97;;;9.10;99.90;;;;;;5003428;28;20190;-70
2024/01/31 04:18:17;;;;;;;8.23;7.43;;;9.10;99.90;;;;;;4985013;28;20570;-71
2024/01/31 04:20:42;;;;;;;9.27;8.10;;;9.10;99.90;;;;;;4995036;28;20427;-70
2024/01/31 04:23:08;;;;;;;8.73;7.83;;;9.00;99.90;;;;;;5001613;28;20179;-70
2024/01/31 04:25:34;;;;;;;7.87;7.07;;;9.00;99.90;;;;;;4997180;28;20588;-71
2024/01/31 04:28:00;;;;;;;8.67;7.57;;;9.10;99.90;;;;;;4993142;28;20688;-71
2024/01/31 04:30:25;;;;;;;8.70;7.47;;;9.00;99.90;;;;;;4992358;28;20458;-70
2024/01/31 04:32:51;;;;;;;12.53;8.30;;;9.10;99.90;;;;;;4995076;28;20191;-70
2024/01/31 04:35:16;;;;;;;9.47;8.33;;;9.10;99.90;;;;;;4992084;28;20229;-70
2024/01/31 04:37:42;;;;;;;10.63;9.50;;;9.00;99.90;;;;;;4991000;28;20203;-70
2024/01/31 04:40:09;;;;;;;15.80;9.43;;;9.00;99.90;;;;;;4985305;28;20194;-70
2024/01/31 04:42:34;;;;;;;14.40;10.87;;;9.00;99.90;;;;;;4999369;28;20234;-70
2024/01/31 04:45:00;;;;;;;10.33;8.53;;;8.90;99.90;;;;;;5010179;28;20457;-70
2024/01/31 04:47:26;;;;;;;11.10;8.93;;;9.00;99.90;;;;;;4981094;28;20976;-70
2024/01/31 04:49:52;;;;;;;12.83;8.87;;;9.00;99.90;;;;;;4989754;28;20191;-70
2024/01/31 04:52:18;;;;;;;10.73;9.10;;;9.10;99.90;;;;;;4994765;28;20254;-70
2024/01/31 04:54:43;;;;;;;10.67;9.03;;;9.10;99.90;;;;;;5000880;28;20466;-70
2024/01/31 04:57:09;;;;;;;11.60;8.13;;;9.20;99.90;;;;;;4997599;28;20195;-70
2024/01/31 04:59:38;;;;;;;13.63;8.30;;;9.20;99.90;;;;;;4992924;28;20611;-70
2024/01/31 05:02:06;;;;;;;9.13;8.23;;;9.20;99.90;;;;;;4984722;28;20781;-70
2024/01/31 05:04:32;;;;;;;9.43;7.97;;;9.10;99.90;;;;;;4995851;28;20439;-70
2024/01/31 05:06:57;;;;;;;9.23;8.43;;;9.00;99.90;;;;;;4991431;28;20513;-71
2024/01/31 05:09:23;;;;;;;11.57;8.00;;;9.00;99.90;;;;;;4992807;28;20547;-70
2024/01/31 05:11:49;;;;;;;8.70;7.90;;;9.10;99.90;;;;;;5002240;28;20238;-70
2024/01/31 05:14:14;;;;;;;9.20;7.43;;;9.10;99.90;;;;;;5004746;28;20879;-70
2024/01/31 05:16:42;;;;;;;11.50;7.93;;;9.00;99.90;;;;;;4980099;28;20235;-70
2024/01/31 05:19:11;;;;;;;10.00;8.07;;;9.00;99.90;;;;;;4989946;28;20175;-70
2024/01/31 05:21:44;;;;;;;12.93;8.90;;;9.00;99.90;;;;;;4992567;28;20923;-70
2024/01/31 05:24:10;;;;;;;10.87;7.73;;;9.00;99.90;;;;;;5004152;28;20426;-70
2024/01/31 05:26:35;;;;;;;9.40;8.43;;;9.00;99.90;;;;;;4992529;28;20462;-70
2024/01/31 05:29:01;;;;;;;8.90;8.00;;;9.00;99.90;;;;;;4987917;28;20183;-70
2024/01/31 05:31:26;;;;;;;9.53;8.00;;;9.10;99.90;;;;;;4986145;28;20584;-70
2024/01/31 05:33:52;;;;;;;9.73;7.83;;;9.20;99.90;;;;;;4986621;28;20682;-70
2024/01/31 05:36:17;;;;;;;8.70;7.30;;;9.20;99.90;;;;;;4996428;28;20198;-70
2024/01/31 05:38:43;;;;;;;10.53;8.50;;;9.20;99.90;;;;;;4987504;28;20187;-70
2024/01/31 05:41:10;;;;;;;9.20;7.70;;;9.20;99.90;;;;;;4993431;28;20719;-70
2024/01/31 05:43:35;;;;;;;10.50;7.40;;;9.20;99.90;;;;;;4984340;28;20223;-70
2024/01/31 05:46:01;;;;;;;11.50;7.97;;;9.20;99.90;;;;;;4992868;28;20431;-70
2024/01/31 05:48:26;;;;;;;9.57;8.53;;;9.10;99.90;;;;;;4988037;28;20656;-70
2024/01/31 05:50:52;;;;;;;10.80;8.33;;;9.10;99.90;;;;;;4995044;28;20238;-70
2024/01/31 05:53:18;;;;;;;11.53;9.00;;;9.10;99.90;;;;;;4984591;28;20238;-70
2024/01/31 05:55:43;;;;;;;10.33;6.97;;;9.10;99.90;;;;;;4991343;28;20225;-70
2024/01/31 05:58:09;;;;;;;10.10;9.10;;;9.10;99.90;;;;;;4996030;28;20199;-70
2024/01/31 06:00:34;;;;;;;9.57;8.17;;;9.00;99.90;;;;;;4997835;28;20586;-70
2024/01/31 06:03:00;;;;;;;9.63;8.40;;;9.10;99.90;;;;;;4987639;28;20199;-70
2024/01/31 06:05:25;;;;;;;8.50;7.67;;;9.00;99.90;;;;;;4986658;28;20184;-70
2024/01/31 06:07:51;;;;;;;8.50;7.50;;;9.10;99.90;;;;;;4984832;28;20196;-70
2024/01/31 06:10:16;;;;;;;8.67;7.83;;;9.20;99.90;;;;;;4989960;28;20184;-70
2024/01/31 06:12:42;;;;;;;9.50;8.13;;;9.20;99.90;;;;;;4991991;28;20254;-70
2024/01/31 06:15:08;;;;;;;9.37;7.50;;;9.10;99.90;;;;;;4995978;28;20254;-70
2024/01/31 06:17:34;;;;;;;10.03;8.17;;;9.10;99.90;;;;;;4996396;28;20204;-70
2024/01/31 06:19:59;;;;;;;9.33;8.57;;;9.00;99.90;;;;;;4996031;28;20426;-70
2024/01/31 06:22:25;;;;;;;12.33;9.10;;;9.00;99.90;;;;;;4993566;28;20183;-70
2024/01/31 06:24:50;;;;;;;10.70;9.20;;;9.00;99.90;;;;;;5012315;28;20658;-70
2024/01/31 06:27:16;;;;;;;9.97;8.97;;;8.90;99.90;;;;;;4999826;28;20211;-70
2024/01/31 06:29:41;;;;;;;9.27;8.30;;;8.90;99.90;;;;;;4995691;28;20732;-70
2024/01/31 06:32:08;;;;;;;11.77;9.70;;;8.90;99.90;;;;;;4986856;28;20207;-70
2024/01/31 06:34:34;;;;;;;10.90;9.77;;;8.90;99.90;;;;;;4994630;28;20226;-70
2024/01/31 06:37:00;;;;;;;14.17;8.60;;;8.90;99.90;;;;;;4993646;28;20485;-71
2024/01/31 06:39:25;;;;;;;10.57;8.80;;;9.00;99.90;;;;;;4993775;28;20262;-71
2024/01/31 06:41:51;;;;;;;13.10;9.43;;;9.10;99.90;;;;;;4994846;28;20183;-71
2024/01/31 06:44:16;;;;;;;10.20;9.10;;;9.10;99.90;;;;;;4995056;28;20596;-70
2024/01/31 06:46:47;;;;;;;8.77;7.87;;;9.10;99.90;;;;;;4998360;28;20227;-70
2024/01/31 06:49:13;;;;;;;12.10;10.90;;;9.10;99.90;;;;;;4995017;28;20525;-71
2024/01/31 06:51:38;;;;;;;16.90;13.83;;;9.10;99.90;;;;;;4994948;28;20470;-71
2024/01/31 06:54:04;;;;;;;18.37;13.60;;;9.00;99.90;;;;;;4991936;28;20207;-71
2024/01/31 06:56:29;;;;;;;15.47;13.73;;;8.90;99.90;;;;;;4991168;28;20216;-71
2024/01/31 06:58:56;;;;;;;15.20;12.67;;;8.80;99.90;;;;;;4986897;28;20622;-72
2024/01/31 07:01:22;;;;;;;14.00;12.60;;;8.80;99.90;;;;;;4992380;28;20172;-72
2024/01/31 07:03:47;;;;;;;12.77;11.47;;;8.90;99.90;;;;;;4993923;28;20438;-71
2024/01/31 07:06:15;;;;;;;13.73;12.37;;;8.90;99.90;;;;;;4993663;28;20225;-71
2024/01/31 07:08:41;;;;;;;14.83;12.50;;;8.90;99.90;;;;;;4993276;28;20645;-71
2024/01/31 07:11:09;;;;;;;15.20;12.57;;;9.00;99.90;;;;;;4994848;28;20585;-71
2024/01/31 07:13:36;;;;;;;14.10;12.60;;;9.00;99.90;;;;;;4994554;28;20203;-71
2024/01/31 07:16:04;;;;;;;12.37;11.27;;;8.80;99.90;;;;;;4994676;28;20509;-71
2024/01/31 07:18:30;;;;;;;11.57;10.37;;;8.70;99.90;;;;;;4994488;28;21072;-71
2024/01/31 07:20:55;;;;;;;14.40;11.60;;;8.60;99.90;;;;;;4994833;28;20435;-71
2024/01/31 07:23:21;;;;;;;12.17;10.97;;;8.60;99.90;;;;;;4994723;28;20183;-71
2024/01/31 07:25:47;;;;;;;15.20;12.37;;;8.70;99.90;;;;;;4994391;28;20696;-71
2024/01/31 07:28:12;;;;;;;15.90;11.43;;;8.70;99.90;;;;;;4994531;28;20215;-71
2024/01/31 07:30:38;;;;;;;13.10;11.10;;;8.80;99.90;;;;;;4994552;28;20263;-71
2024/01/31 07:33:03;;;;;;;15.93;13.00;;;8.80;99.90;;;;;;4994469;28;20164;-72
2024/01/31 07:35:29;;;;;;;17.23;10.93;;;8.80;99.90;;;;;;4994413;28;20207;-71
2024/01/31 07:37:55;;;;;;;16.33;12.40;;;8.80;99.90;;;;;;4994154;28;20607;-71
2024/01/31 07:40:20;;;;;;;15.83;11.47;;;8.90;99.90;;;;;;4993119;28;20202;-71
2024/01/31 07:42:46;;;;;;;12.87;11.57;;;9.00;99.90;;;;;;4994179;28;20188;-71
2024/01/31 07:45:11;;;;;;;14.13;11.20;;;9.10;99.90;;;;;;4994395;28;20176;-71
2024/01/31 07:47:38;;;;;;;17.60;11.80;;;9.20;99.90;;;;;;4993900;28;20195;-71
2024/01/31 07:50:07;;;;;;;15.47;12.07;;;9.20;99.90;;;;;;4994186;28;20222;-71
2024/01/31 07:52:33;;;;;;;11.30;10.20;;;9.30;99.90;;;;;;4992676;28;20509;-72
2024/01/31 07:54:59;;;;;;;12.80;11.57;;;9.40;99.90;;;;;;4993525;28;20418;-71
2024/01/31 07:57:24;;;;;;;13.70;12.40;;;9.40;99.90;;;;;;4993544;28;20572;-71
2024/01/31 07:59:50;;;;;;;15.30;11.33;;;9.40;99.90;;;;;;4994346;28;20203;-72
2024/01/31 08:02:15;;;;;;;16.53;12.30;;;9.40;99.90;;;;;;4993547;28;20171;-71
2024/01/31 08:04:42;;;;;;;15.93;13.03;;;9.40;99.90;;;;;;4993997;28;20171;-71
2024/01/31 08:07:10;;;;;;;17.07;12.97;;;9.40;99.90;;;;;;4993616;28;20191;-71
2024/01/31 08:09:39;;;;;;;19.17;13.27;;;9.30;99.90;;;;;;4993810;28;20461;-72
2024/01/31 08:12:05;;;;;;;17.47;12.20;;;9.30;99.90;;;;;;4993470;28;20462;-72
2024/01/31 08:14:31;;;;;;;16.20;12.60;;;9.20;99.90;;;;;;4993791;28;20502;-72
2024/01/31 08:16:57;;;;;;;16.33;11.53;;;9.10;99.90;;;;;;4993255;28;20936;-71
2024/01/31 08:19:22;;;;;;;14.87;12.37;;;9.00;99.90;;;;;;4993652;28;20176;-71
2024/01/31 08:21:48;;;;;;;23.80;20.57;;;8.90;99.90;;;;;;4993470;28;20182;-72
2024/01/31 08:24:13;;;;;;;24.50;19.90;;;8.90;99.90;;;;;;4993579;28;20230;-71
2024/01/31 08:26:39;;;;;;;20.57;18.10;;;9.00;99.90;;;;;;4992163;28;20211;-71
2024/01/31 08:29:04;;;;;;;14.50;13.20;;;9.10;99.90;;;;;;4993247;28;20205;-72
2024/01/31 08:31:30;;;;;;;16.47;12.27;;;9.10;99.90;;;;;;4993111;28;20213;-71
2024/01/31 08:33:55;;;;;;;15.57;12.30;;;9.20;99.90;;;;;;4993616;28;20251;-71
2024/01/31 08:36:21;;;;;;;12.67;11.43;;;9.20;99.90;;;;;;4993338;28;20555;-72
2024/01/31 08:38:46;;;;;;;13.77;11.00;;;9.20;99.90;;;;;;4993203;28;20183;-71
2024/01/31 08:41:12;;;;;;;14.27;12.03;;;9.20;99.90;;;;;;4993147;28;20187;-71
2024/01/31 08:43:38;;;;;;;17.43;11.20;;;9.20;99.90;;;;;;4993181;28;20175;-72
2024/01/31 08:46:03;;;;;;;11.73;10.77;;;9.30;99.90;;;;;;4993170;28;20175;-71
2024/01/31 08:48:29;;;;;;;10.07;9.07;;;9.40;99.90;;;;;;4992835;28;20207;-71
2024/01/31 08:50:57;;;;;;;13.07;10.97;;;9.50;99.90;;;;;;4992910;28;20253;-71
2024/01/31 08:53:23;;;;;;;11.77;10.63;;;9.50;99.90;;;;;;4993000;28;20580;-72
2024/01/31 08:55:48;;;;;;;14.40;12.87;;;9.50;99.90;;;;;;4991934;28;20573;-71
2024/01/31 08:58:14;;;;;;;13.13;11.93;;;9.60;99.90;;;;;;4992481;28;20227;-71
2024/01/31 09:00:39;;;;;;;12.93;11.70;;;9.60;99.90;;;;;;4992992;28;20184;-72
2024/01/31 09:03:05;;;;;;;13.43;12.10;;;9.70;99.90;;;;;;4992952;28;20172;-71
2024/01/31 09:05:30;;;;;;;15.13;11.80;;;9.70;99.90;;;;;;4992925;28;20172;-71
2024/01/31 09:07:56;;;;;;;16.13;13.47;;;9.70;99.90;;;;;;4992291;28;20195;-71
2024/01/31 09:10:22;;;;;;;16.00;14.20;;;9.80;99.90;;;;;;4992917;28;20556;-71
2024/01/31 09:12:48;;;;;;;16.37;14.67;;;9.70;99.90;;;;;;4992557;28;20195;-72
2024/01/31 09:15:13;;;;;;;15.63;13.93;;;9.80;99.90;;;;;;4992710;28;20427;-71
2024/01/31 09:17:39;;;;;;;16.73;13.70;;;9.80;99.90;;;;;;4992294;28;20195;-71
2024/01/31 09:20:06;;;;;;;18.07;14.90;;;9.80;99.90;;;;;;4992800;28;20174;-72
2024/01/31 09:22:32;;;;;;;17.40;13.80;;;10.00;99.90;;;;;;4992675;28;20183;-72
2024/01/31 09:24:57;;;;;;;16.20;14.63;;;10.10;99.90;;;;;;4992773;28;20526;-72
2024/01/31 09:27:23;;;;;;;16.47;14.77;;;10.00;99.90;;;;;;4992109;28;20253;-71
2024/01/31 09:29:48;;;;;;;19.53;14.17;;;10.10;99.90;;;;;;4992472;28;20643;-72
2024/01/31 09:32:14;;;;;;;15.80;14.13;;;10.20;99.90;;;;;;4992414;28;20665;-72
2024/01/31 09:34:41;;;;;;;17.83;15.93;;;10.30;99.90;;;;;;4992665;28;20175;-72
2024/01/31 09:37:06;;;;;;;15.77;13.83;;;10.40;99.90;;;;;;4992401;28;20446;-72
2024/01/31 09:39:32;;;;;;;15.93;14.33;;;10.50;99.90;;;;;;4992835;28;20410;-71
2024/01/31 09:41:57;;;;;;;16.00;14.40;;;10.40;99.90;;;;;;4992360;28;20591;-71
2024/01/31 09:44:24;;;;;;;15.53;14.00;;;10.40;99.90;;;;;;4992281;28;20215;-72
2024/01/31 09:46:52;;;;;;;17.00;14.60;;;10.40;99.90;;;;;;4992033;28;20214;-71
2024/01/31 09:49:18;;;;;;;17.40;15.17;;;10.50;99.90;;;;;;4992485;28;20426;-71
2024/01/31 09:51:43;;;;;;;16.40;14.80;;;10.50;99.90;;;;;;4991943;28;20469;-71
2024/01/31 09:54:09;;;;;;;18.33;14.67;;;10.60;99.90;;;;;;4992629;28;20582;-72
2024/01/31 09:56:36;;;;;;;17.30;14.20;;;10.70;99.90;;;;;;4992226;28;20189;-71
2024/01/31 09:59:02;;;;;;;17.50;14.70;;;10.70;99.90;;;;;;4992155;28;20438;-71
2024/01/31 10:01:29;;;;;;;16.33;14.63;;;10.80;99.90;;;;;;4992388;28;20502;-72
2024/01/31 10:03:57;;;;;;;17.23;15.33;;;10.70;99.90;;;;;;4992370;28;20439;-71
2024/01/31 10:06:24;;;;;;;17.20;15.60;;;10.70;99.90;;;;;;4992064;28;20423;-74
2024/01/31 10:08:50;;;;;;;16.97;14.20;;;10.60;99.90;;;;;;4992204;28;20963;-73
2024/01/31 10:11:15;;;;;;;16.60;14.83;;;10.70;99.90;;;;;;4992343;28;20501;-71
2024/01/31 10:13:41;;;;;;;18.93;15.77;;;10.70;99.90;;;;;;4991836;28;20172;-71
2024/01/31 10:16:06;;;;;;;15.23;13.77;;;10.60;99.90;;;;;;4992011;28;20186;-71
2024/01/31 10:18:32;;;;;;;17.60;14.73;;;10.60;99.90;;;;;;4992644;28;20198;-72
2024/01/31 10:20:58;;;;;;;20.47;16.57;;;10.60;99.90;;;;;;4995905;28;20190;-71
2024/01/31 10:23:23;;;;;;;21.40;16.93;;;10.70;99.90;;;;;;4995915;28;20242;-71
2024/01/31 10:25:50;;;;;;;18.97;15.40;;;10.80;99.90;;;;;;4995607;28;20633;-73
2024/01/31 10:28:19;;;;;;;16.50;14.07;;;10.90;99.90;;;;;;4995370;28;20450;-74
2024/01/31 10:30:45;;;;;;;18.17;13.70;;;11.00;99.90;;;;;;4995498;28;20435;-70
2024/01/31 10:33:12;;;;;;;19.80;15.23;;;11.00;99.90;;;;;;4995855;28;20433;-74
2024/01/31 10:35:40;;;;;;;17.17;15.47;;;11.00;99.90;;;;;;4995303;28;20422;-73
2024/01/31 10:38:07;;;;;;;16.40;14.53;;;11.00;99.90;;;;;;4995322;28;20438;-73
2024/01/31 10:40:34;;;;;;;16.43;14.63;;;11.00;99.90;;;;;;4995529;28;20761;-73
2024/01/31 10:43:02;;;;;;;16.60;14.93;;;11.10;99.90;;;;;;4995564;28;20419;-73
2024/01/31 10:45:29;;;;;;;18.17;16.27;;;11.20;99.90;;;;;;4995320;28;20427;-73
2024/01/31 10:47:55;;;;;;;14.83;13.43;;;11.20;99.90;;;;;;4995160;28;20434;-72
2024/01/31 10:50:21;;;;;;;16.27;14.53;;;11.20;99.90;;;;;;4995551;28;20430;-73
2024/01/31 10:52:48;;;;;;;18.40;14.17;;;11.30;99.90;;;;;;4995330;28;20204;-73
2024/01/31 10:55:14;;;;;;;15.37;13.97;;;11.30;99.90;;;;;;4995143;28;20426;-72
2024/01/31 10:57:42;;;;;;;18.77;14.07;;;11.40;99.90;;;;;;4994802;28;20449;-73
2024/01/31 11:00:23;;;;;;;15.80;13.70;;;11.40;99.90;;;;;;4994810;28;20183;-72
2024/01/31 11:02:49;;;;;;;15.80;14.20;;;11.50;99.90;;;;;;4994735;28;20521;-72
2024/01/31 11:05:16;;;;;;;16.83;13.83;;;11.60;99.90;;;;;;4995041;28;20983;-72
2024/01/31 11:07:48;;;;;;;19.10;16.50;;;11.60;99.90;;;;;;4994570;28;20680;-73
2024/01/31 11:10:17;;;;;;;17.17;15.47;;;11.50;99.90;;;;;;4995268;28;20858;-73
2024/01/31 11:12:43;;;;;;;16.03;14.60;;;11.70;99.90;;;;;;4995016;28;20465;-73
2024/01/31 11:15:09;;;;;;;15.40;13.90;;;11.80;99.90;;;;;;4994558;28;20415;-73
2024/01/31 11:17:35;;;;;;;15.73;14.03;;;11.90;99.90;;;;;;4994622;28;20195;-73
2024/01/31 11:20:01;;;;;;;16.27;13.87;;;11.90;99.90;;;;;;4994825;28;20247;-73
2024/01/31 11:22:28;;;;;;;20.20;13.40;;;12.00;99.90;;;;;;4994779;28;20427;-72
2024/01/31 11:24:55;;;;;;;12.63;11.40;;;12.20;99.90;;;;;;4994689;28;20423;-72
2024/01/31 11:27:21;;;;;;;14.57;12.07;;;12.30;99.90;;;;;;4994176;28;20462;-73
2024/01/31 11:29:51;;;;;;;13.67;11.63;;;12.10;99.90;;;;;;4993691;28;20434;-73
2024/01/31 11:32:23;;;;;;;14.47;12.40;;;12.00;99.90;;;;;;4994556;28;20241;-73
2024/01/31 11:35:05;;;;;;;14.93;11.63;;;12.10;99.90;;;;;;4994389;28;20469;-73
2024/01/31 11:37:31;;;;;;;14.30;12.80;;;12.20;99.90;;;;;;4994323;28;21005;-73
2024/01/31 11:39:56;;;;;;;14.83;12.80;;;12.30;99.90;;;;;;4994600;28;20422;-72
2024/01/31 11:42:22;;;;;;;20.30;11.63;;;12.20;99.90;;;;;;4994513;28;20172;-72
2024/01/31 11:44:48;;;;;;;14.57;13.03;;;12.10;99.90;;;;;;4994254;28;20183;-73
2024/01/31 11:47:15;;;;;;;14.80;13.30;;;12.00;99.90;;;;;;4994127;28;20247;-73
2024/01/31 11:49:41;;;;;;;15.47;13.97;;;12.00;99.90;;;;;;4994388;28;20203;-73
2024/01/31 11:52:07;;;;;;;16.83;15.03;;;12.00;99.90;;;;;;4994495;28;20509;-72
2024/01/31 11:54:32;;;;;;;14.63;13.17;;;11.90;99.90;;;;;;4993898;28;20214;-73
2024/01/31 11:56:59;;;;;;;22.60;14.07;;;12.00;99.90;;;;;;4993787;28;20734;-73
2024/01/31 11:59:25;;;;;;;14.07;12.90;;;12.10;99.90;;;;;;4994133;28;20489;-73
2024/01/31 12:01:50;;;;;;;15.20;13.50;;;12.20;99.90;;;;;;4993927;28;20514;-72
2024/01/31 12:04:16;;;;;;;16.43;13.63;;;12.20;99.90;;;;;;4993969;28;20179;-73
2024/01/31 12:06:41;;;;;;;19.70;17.53;;;12.20;99.90;;;;;;4993458;28;20211;-73
2024/01/31 12:09:07;;;;;;;22.17;19.87;;;12.00;99.90;;;;;;4994063;28;20179;-72
2024/01/31 12:11:33;;;;;;;22.00;19.50;;;11.90;99.90;;;;;;4993819;28;20223;-72
2024/01/31 12:13:58;;;;;;;21.47;19.37;;;12.10;99.90;;;;;;4993807;28;20238;-72
2024/01/31 12:16:24;;;;;;;21.20;17.90;;;12.30;99.90;;;;;;4993151;28;20172;-73
2024/01/31 12:19:00;;;;;;;21.63;19.53;;;12.50;99.90;;;;;;4993632;28;20164;-72
2024/01/31 12:21:26;;;;;;;22.90;19.40;;;12.70;99.90;;;;;;4993699;28;20167;-72
2024/01/31 12:23:51;;;;;;;23.60;19.77;;;12.80;99.90;;;;;;4993766;28;20430;-72
2024/01/31 12:26:17;;;;;;;21.53;19.30;;;13.00;99.90;;;;;;4993179;28;20365;-74
2024/01/31 12:28:53;;;;;;;19.97;17.97;;;13.30;99.90;;;;;;4993440;28;20194;-73
2024/01/31 12:31:18;;;;;;;22.07;19.70;;;13.70;99.90;;;;;;4993410;28;20195;-72
2024/01/31 12:33:44;;;;;;;20.70;18.23;;;13.90;99.90;;;;;;4993388;28;20422;-73